Time;durP1;ratioP1;P1;durP2;ratioP2;P2;SDS_P1;SDS_P2;PMS_P1;PMS_P2;Temp;Humidity;BMP_temperature;BMP_pressure;BME280_temperature;BME280_humidity;BME280_pressure;Samples;Min_cycle;Max_cycle;Signal;HPM_P1;HPM_P2
2023/07/30 00:00:35;;;;;;;26.47;24.90;;;;;;;;;;5081276;28;20436;-81
2023/07/30 00:03:02;;;;;;;26.50;24.80;;;;;;;;;;5080130;28;20449;-82
2023/07/30 00:05:29;;;;;;;27.20;25.37;;;;;;;;;;5079577;28;20445;-81
2023/07/30 00:07:56;;;;;;;26.60;24.70;;;;;;;;;;5079993;28;20580;-81
2023/07/30 00:10:23;;;;;;;26.77;24.97;;;;;;;;;;5079797;28;20436;-81
2023/07/30 00:12:50;;;;;;;26.40;24.70;;;;;;;;;;5080437;28;20448;-81
2023/07/30 00:15:18;;;;;;;25.17;23.57;;;;;;;;;;5080584;28;20519;-81
2023/07/30 00:17:45;;;;;;;26.07;24.30;;;;;;;;;;5080662;28;20420;-81
2023/07/30 00:20:12;;;;;;;26.37;24.50;;;;;;;;;;5078933;28;20454;-81
2023/07/30 00:22:39;;;;;;;25.37;23.77;;;;;;;;;;5079997;28;20470;-82
2023/07/30 00:25:08;;;;;;;25.57;23.97;;;;;;;;;;5080178;28;20517;-81
2023/07/30 00:27:35;;;;;;;24.40;22.67;;;;;;;;;;5079563;28;20456;-82
2023/07/30 00:30:02;;;;;;;24.43;22.97;;;;;;;;;;5079578;28;20445;-81
2023/07/30 00:32:30;;;;;;;23.97;22.50;;;;;;;;;;5080652;28;20469;-81
2023/07/30 00:34:57;;;;;;;23.70;22.40;;;;;;;;;;5080042;28;20444;-82
2023/07/30 00:37:24;;;;;;;23.77;22.20;;;;;;;;;;5079910;28;20511;-82
2023/07/30 00:39:51;;;;;;;24.20;22.60;;;;;;;;;;5079954;28;20432;-81
2023/07/30 00:42:18;;;;;;;23.20;21.90;;;;;;;;;;5079554;28;20500;-81
2023/07/30 00:44:45;;;;;;;22.90;21.47;;;;;;;;;;5080093;28;20446;-81
2023/07/30 00:47:13;;;;;;;23.97;22.57;;;;;;;;;;5080329;28;20489;-81
2023/07/30 00:49:41;;;;;;;22.60;21.00;;;;;;;;;;5079181;28;20446;-81
2023/07/30 00:52:08;;;;;;;21.60;20.10;;;;;;;;;;5080298;28;20470;-81
2023/07/30 00:54:35;;;;;;;22.03;20.57;;;;;;;;;;5080499;28;20453;-81
2023/07/30 00:57:02;;;;;;;20.90;19.70;;;;;;;;;;5079892;28;20942;-80
2023/07/30 00:59:29;;;;;;;20.87;19.67;;;;;;;;;;5079623;28;20449;-81
2023/07/30 01:01:58;;;;;;;21.03;19.80;;;;;;;;;;5079692;28;20466;-81
2023/07/30 01:04:25;;;;;;;21.87;20.43;;;;;;;;;;5079017;28;20465;-81
2023/07/30 01:06:53;;;;;;;22.33;20.73;;;;;;;;;;5079401;28;20503;-82
2023/07/30 01:09:21;;;;;;;22.27;20.80;;;;;;;;;;5079151;28;20486;-81
2023/07/30 01:11:48;;;;;;;21.53;20.33;;;;;;;;;;5078628;28;20473;-81
2023/07/30 01:14:15;;;;;;;20.73;19.57;;;;;;;;;;5079220;28;20957;-81
2023/07/30 01:16:42;;;;;;;22.80;21.13;;;;;;;;;;5079527;28;20465;-81
2023/07/30 01:19:10;;;;;;;22.60;21.30;;;;;;;;;;5078589;28;20408;-81
2023/07/30 01:21:39;;;;;;;21.17;19.93;;;;;;;;;;5078835;28;20473;-81
2023/07/30 01:24:06;;;;;;;23.47;21.97;;;;;;;;;;5079308;28;20424;-81
2023/07/30 01:26:36;;;;;;;23.17;21.60;;;;;;;;;;5079414;28;20478;-81
2023/07/30 01:29:05;;;;;;;22.00;20.50;;;;;;;;;;5078876;28;20444;-81
2023/07/30 01:31:33;;;;;;;23.47;21.87;;;;;;;;;;5079127;28;20456;-81
2023/07/30 01:34:01;;;;;;;22.33;21.10;;;;;;;;;;5078726;28;20479;-81
2023/07/30 01:36:29;;;;;;;22.83;21.57;;;;;;;;;;5078940;28;20438;-81
2023/07/30 01:38:58;;;;;;;22.57;21.33;;;;;;;;;;5078214;28;20482;-81
2023/07/30 01:41:25;;;;;;;23.47;21.93;;;;;;;;;;5077477;28;20478;-82
2023/07/30 01:43:54;;;;;;;24.17;22.43;;;;;;;;;;5078693;28;20425;-82
2023/07/30 01:46:21;;;;;;;22.93;21.57;;;;;;;;;;5079059;28;20461;-81
2023/07/30 01:48:48;;;;;;;24.03;22.50;;;;;;;;;;5077756;28;20492;-81
2023/07/30 01:51:15;;;;;;;23.33;22.03;;;;;;;;;;5079030;28;20440;-81
2023/07/30 01:53:42;;;;;;;24.43;22.77;;;;;;;;;;5079165;28;20424;-81
2023/07/30 01:56:09;;;;;;;25.03;23.30;;;;;;;;;;5078371;28;20925;-81
2023/07/30 01:58:36;;;;;;;25.70;23.70;;;;;;;;;;5077755;28;20464;-81
2023/07/30 02:01:03;;;;;;;25.53;23.80;;;;;;;;;;5078595;28;20500;-81
2023/07/30 02:03:30;;;;;;;24.77;23.27;;;;;;;;;;5077686;28;20461;-81
2023/07/30 02:05:58;;;;;;;24.37;22.97;;;;;;;;;;5077958;28;20439;-81
2023/07/30 02:08:25;;;;;;;25.17;23.60;;;;;;;;;;5077508;28;20452;-82
2023/07/30 02:10:58;;;;;;;26.40;24.70;;;;;;;;;;5079512;28;20498;-81
2023/07/30 02:13:26;;;;;;;23.73;22.33;;;;;;;;;;5080898;28;20435;-81
2023/07/30 02:15:53;;;;;;;24.57;22.93;;;;;;;;;;5080321;28;20461;-81
2023/07/30 02:18:21;;;;;;;25.97;24.37;;;;;;;;;;5080481;28;20445;-82
2023/07/30 02:20:48;;;;;;;25.40;23.73;;;;;;;;;;5080362;28;20540;-81
2023/07/30 02:23:16;;;;;;;25.13;23.53;;;;;;;;;;5080405;28;20424;-81
2023/07/30 02:25:43;;;;;;;24.33;22.93;;;;;;;;;;5080367;28;20444;-82
2023/07/30 02:28:11;;;;;;;24.27;22.53;;;;;;;;;;5080276;28;20456;-81
2023/07/30 02:30:39;;;;;;;24.97;23.27;;;;;;;;;;5079470;28;20424;-80
2023/07/30 02:33:06;;;;;;;26.40;24.30;;;;;;;;;;5080178;28;20444;-81
2023/07/30 02:35:33;;;;;;;25.07;23.67;;;;;;;;;;5079702;28;20440;-80
2023/07/30 02:38:00;;;;;;;24.33;22.73;;;;;;;;;;5080033;28;20424;-81
2023/07/30 02:40:27;;;;;;;24.90;23.40;;;;;;;;;;5079455;28;20527;-81
2023/07/30 02:42:54;;;;;;;24.10;22.50;;;;;;;;;;5080071;28;20452;-82
2023/07/30 02:45:21;;;;;;;24.37;22.70;;;;;;;;;;5080043;28;20490;-81
2023/07/30 02:47:50;;;;;;;26.40;24.30;;;;;;;;;;5080065;28;20425;-80
2023/07/30 02:50:17;;;;;;;24.20;22.60;;;;;;;;;;5079864;28;20439;-81
2023/07/30 02:52:44;;;;;;;24.30;22.73;;;;;;;;;;5080408;28;20456;-81
2023/07/30 02:55:11;;;;;;;25.77;24.03;;;;;;;;;;5080661;28;20428;-81
2023/07/30 02:57:38;;;;;;;25.30;23.80;;;;;;;;;;5080307;28;21185;-81
2023/07/30 03:00:06;;;;;;;25.10;23.60;;;;;;;;;;5082148;28;20419;-81
2023/07/30 03:02:33;;;;;;;26.70;24.70;;;;;;;;;;5083653;28;20858;-81
2023/07/30 03:05:01;;;;;;;27.47;25.50;;;;;;;;;;5083513;28;20424;-81
2023/07/30 03:07:29;;;;;;;25.97;24.27;;;;;;;;;;5082759;28;20443;-81
2023/07/30 03:09:56;;;;;;;29.40;27.03;;;;;;;;;;5081928;28;20486;-81
2023/07/30 03:12:23;;;;;;;30.30;27.70;;;;;;;;;;5083132;28;20470;-81
2023/07/30 03:14:50;;;;;;;30.23;27.90;;;;;;;;;;5082811;28;20449;-81
2023/07/30 03:17:17;;;;;;;29.30;27.10;;;;;;;;;;5083731;28;20424;-81
2023/07/30 03:19:44;;;;;;;28.03;26.17;;;;;;;;;;5082273;28;20420;-81
2023/07/30 03:22:13;;;;;;;27.10;25.20;;;;;;;;;;5082538;28;20433;-82
2023/07/30 03:24:40;;;;;;;27.37;25.53;;;;;;;;;;5083586;28;20424;-81
2023/07/30 03:27:07;;;;;;;28.77;26.20;;;;;;;;;;5083104;28;20461;-81
2023/07/30 03:29:34;;;;;;;26.83;25.07;;;;;;;;;;5083378;28;20456;-81
2023/07/30 03:32:01;;;;;;;26.10;24.40;;;;;;;;;;5082940;28;20478;-81
2023/07/30 03:34:28;;;;;;;27.30;25.10;;;;;;;;;;5082918;28;20435;-81
2023/07/30 03:36:55;;;;;;;25.63;23.83;;;;;;;;;;5082891;28;20461;-81
2023/07/30 03:39:24;;;;;;;27.07;24.97;;;;;;;;;;5082251;28;20420;-81
2023/07/30 03:41:51;;;;;;;25.73;23.70;;;;;;;;;;5082653;28;20467;-82
2023/07/30 03:44:18;;;;;;;25.77;23.53;;;;;;;;;;5082061;28;20453;-80
2023/07/30 03:46:45;;;;;;;25.23;23.30;;;;;;;;;;5082608;28;20453;-81
2023/07/30 03:49:12;;;;;;;25.03;23.43;;;;;;;;;;5081476;28;20460;-81
2023/07/30 03:51:39;;;;;;;26.43;24.13;;;;;;;;;;5082943;28;20473;-81
2023/07/30 03:54:06;;;;;;;31.23;25.50;;;;;;;;;;5082098;28;20476;-82
2023/07/30 03:56:35;;;;;;;26.70;24.47;;;;;;;;;;5084734;28;20434;-81
2023/07/30 03:59:02;;;;;;;26.33;24.43;;;;;;;;;;5082084;28;20449;-81
2023/07/30 04:01:30;;;;;;;25.37;23.57;;;;;;;;;;5081866;28;20467;-83
2023/07/30 04:03:57;;;;;;;25.37;23.47;;;;;;;;;;5078836;28;20439;-80
2023/07/30 04:06:24;;;;;;;24.80;22.70;;;;;;;;;;5079162;28;20416;-81
2023/07/30 04:08:51;;;;;;;24.80;23.07;;;;;;;;;;5078536;28;20481;-81
2023/07/30 04:11:18;;;;;;;24.80;23.20;;;;;;;;;;5077292;28;20448;-81
2023/07/30 04:13:46;;;;;;;26.23;23.80;;;;;;;;;;5077328;28;20503;-82
2023/07/30 04:16:13;;;;;;;25.23;23.13;;;;;;;;;;5077025;28;20458;-81
2023/07/30 04:18:41;;;;;;;24.53;22.90;;;;;;;;;;5077158;28;20488;-82
2023/07/30 04:21:08;;;;;;;24.90;22.90;;;;;;;;;;5077621;28;20474;-81
2023/07/30 04:23:35;;;;;;;25.43;23.00;;;;;;;;;;5077010;28;20828;-82
2023/07/30 04:26:02;;;;;;;24.50;22.60;;;;;;;;;;5077701;28;20766;-81
2023/07/30 04:28:29;;;;;;;24.57;22.80;;;;;;;;;;5076537;28;20580;-81
2023/07/30 04:30:57;;;;;;;23.27;21.40;;;;;;;;;;5076985;28;20470;-81
2023/07/30 04:33:26;;;;;;;23.47;21.53;;;;;;;;;;5077381;28;20420;-81
2023/07/30 04:35:53;;;;;;;22.90;21.30;;;;;;;;;;5076717;28;20451;-81
2023/07/30 04:38:20;;;;;;;24.53;22.63;;;;;;;;;;5077007;28;20426;-81
2023/07/30 04:40:47;;;;;;;24.33;22.03;;;;;;;;;;5076281;28;20470;-82
2023/07/30 04:43:14;;;;;;;24.33;22.33;;;;;;;;;;5076766;28;20464;-82
2023/07/30 04:45:41;;;;;;;23.60;22.10;;;;;;;;;;5076949;28;20453;-81
2023/07/30 04:48:09;;;;;;;24.13;22.53;;;;;;;;;;5076266;28;20457;-82
2023/07/30 04:50:38;;;;;;;24.50;22.40;;;;;;;;;;5076328;28;20420;-81
2023/07/30 04:53:05;;;;;;;22.73;21.33;;;;;;;;;;5076451;28;20536;-81
2023/07/30 04:55:32;;;;;;;24.57;22.40;;;;;;;;;;5076941;28;20441;-82
2023/07/30 04:57:59;;;;;;;23.93;22.23;;;;;;;;;;5076572;28;20428;-81
2023/07/30 05:00:26;;;;;;;22.50;20.77;;;;;;;;;;5075989;28;20420;-81
2023/07/30 05:02:54;;;;;;;24.20;22.33;;;;;;;;;;5076723;28;20470;-81
2023/07/30 05:05:22;;;;;;;23.43;21.83;;;;;;;;;;5076579;28;20405;-82
2023/07/30 05:07:49;;;;;;;22.57;21.17;;;;;;;;;;5076666;28;20837;-81
2023/07/30 05:10:16;;;;;;;23.10;21.30;;;;;;;;;;5075547;28;20492;-81
2023/07/30 05:12:43;;;;;;;22.27;20.67;;;;;;;;;;5076266;28;20444;-81
2023/07/30 05:15:10;;;;;;;22.37;21.10;;;;;;;;;;5076202;28;20935;-81
2023/07/30 05:17:37;;;;;;;22.07;20.67;;;;;;;;;;5075505;28;20445;-82
2023/07/30 05:20:05;;;;;;;22.30;20.50;;;;;;;;;;5075870;28;20449;-81
2023/07/30 05:22:33;;;;;;;22.70;20.97;;;;;;;;;;5075689;28;20469;-82
2023/07/30 05:25:00;;;;;;;21.80;20.50;;;;;;;;;;5076631;28;20420;-82
2023/07/30 05:27:31;;;;;;;22.17;20.60;;;;;;;;;;5076254;28;20436;-81
2023/07/30 05:29:58;;;;;;;22.97;21.30;;;;;;;;;;5075207;28;20484;-82
2023/07/30 05:32:25;;;;;;;22.13;20.63;;;;;;;;;;5076364;28;20472;-81
2023/07/30 05:34:52;;;;;;;22.90;21.00;;;;;;;;;;5076250;28;20519;-81
2023/07/30 05:37:19;;;;;;;21.50;19.83;;;;;;;;;;5076628;28;20429;-81
2023/07/30 05:39:47;;;;;;;21.00;19.43;;;;;;;;;;5076196;28;20784;-82
2023/07/30 05:42:14;;;;;;;21.20;19.77;;;;;;;;;;5076022;28;20527;-82
2023/07/30 05:44:42;;;;;;;21.73;20.20;;;;;;;;;;5075727;28;20415;-82
2023/07/30 05:47:09;;;;;;;21.80;20.20;;;;;;;;;;5075208;28;20457;-81
2023/07/30 05:49:36;;;;;;;21.13;19.63;;;;;;;;;;5074493;28;21043;-81
2023/07/30 05:52:03;;;;;;;22.30;21.00;;;;;;;;;;5074719;28;20493;-81
2023/07/30 05:54:30;;;;;;;21.43;19.93;;;;;;;;;;5074365;28;20466;-81
2023/07/30 05:56:58;;;;;;;20.90;19.70;;;;;;;;;;5074491;28;20564;-81
2023/07/30 05:59:25;;;;;;;20.03;18.83;;;;;;;;;;5074098;28;20958;-81
2023/07/30 06:01:52;;;;;;;20.10;18.70;;;;;;;;;;5074329;28;20459;-82
2023/07/30 06:04:19;;;;;;;20.70;19.40;;;;;;;;;;5074803;28;20428;-81
2023/07/30 06:06:46;;;;;;;21.43;19.83;;;;;;;;;;5074968;28;20435;-81
2023/07/30 06:09:13;;;;;;;19.97;18.57;;;;;;;;;;5074726;28;20528;-81
2023/07/30 06:11:40;;;;;;;19.43;18.27;;;;;;;;;;5074906;28;20508;-83
2023/07/30 06:14:09;;;;;;;20.23;18.73;;;;;;;;;;5073998;28;20448;-82
2023/07/30 06:16:36;;;;;;;19.73;18.43;;;;;;;;;;5074113;28;20483;-81
2023/07/30 06:19:03;;;;;;;20.60;19.23;;;;;;;;;;5073067;28;20472;-83
2023/07/30 06:21:30;;;;;;;21.17;19.87;;;;;;;;;;5073449;28;20559;-79
2023/07/30 06:23:57;;;;;;;21.17;19.83;;;;;;;;;;5071709;28;20486;-79
2023/07/30 06:26:24;;;;;;;21.20;19.40;;;;;;;;;;5071999;28;20424;-78
2023/07/30 06:28:51;;;;;;;21.53;19.67;;;;;;;;;;5071353;28;20801;-80
2023/07/30 06:31:20;;;;;;;22.20;20.07;;;;;;;;;;5071772;28;20469;-79
2023/07/30 06:33:47;;;;;;;21.63;19.50;;;;;;;;;;5070589;28;20453;-79
2023/07/30 06:36:14;;;;;;;21.80;20.10;;;;;;;;;;5071511;28;20831;-79
2023/07/30 06:38:41;;;;;;;21.30;19.37;;;;;;;;;;5072606;28;20453;-82
2023/07/30 06:41:08;;;;;;;21.97;20.30;;;;;;;;;;5074761;28;20472;-83
2023/07/30 06:43:35;;;;;;;24.47;21.23;;;;;;;;;;5075503;28;20479;-83
2023/07/30 06:46:02;;;;;;;22.73;21.07;;;;;;;;;;5074568;28;21057;-82
2023/07/30 06:48:30;;;;;;;23.83;21.90;;;;;;;;;;5074393;28;20450;-83
2023/07/30 06:50:58;;;;;;;24.80;22.80;;;;;;;;;;5074349;28;20505;-82
2023/07/30 06:53:25;;;;;;;26.20;24.03;;;;;;;;;;5075096;28;21150;-82
2023/07/30 06:55:52;;;;;;;26.20;23.90;;;;;;;;;;5074659;28;20515;-81
2023/07/30 06:58:20;;;;;;;25.63;23.73;;;;;;;;;;5074660;28;20456;-81
2023/07/30 07:00:47;;;;;;;23.23;21.33;;;;;;;;;;5074442;28;20551;-81
2023/07/30 07:03:14;;;;;;;25.03;23.00;;;;;;;;;;5075184;28;20450;-80
2023/07/30 07:05:42;;;;;;;24.30;22.20;;;;;;;;;;5076090;28;20476;-80
2023/07/30 07:08:09;;;;;;;24.60;22.70;;;;;;;;;;5075479;28;20474;-81
2023/07/30 07:10:36;;;;;;;26.13;23.43;;;;;;;;;;5074526;28;20452;-81
2023/07/30 07:13:03;;;;;;;24.43;22.73;;;;;;;;;;5076099;28;20445;-81
2023/07/30 07:15:30;;;;;;;25.93;23.30;;;;;;;;;;5075511;28;20858;-81
2023/07/30 07:17:57;;;;;;;26.10;24.10;;;;;;;;;;5075328;28;20466;-81
2023/07/30 07:20:24;;;;;;;27.03;24.93;;;;;;;;;;5075074;28;20466;-80
2023/07/30 07:22:53;;;;;;;30.13;27.50;;;;;;;;;;5076031;28;20473;-80
2023/07/30 07:25:20;;;;;;;29.80;27.60;;;;;;;;;;5075568;28;20449;-81
2023/07/30 07:27:47;;;;;;;33.27;30.67;;;;;;;;;;5075293;28;20774;-80
2023/07/30 07:30:15;;;;;;;29.47;27.47;;;;;;;;;;5074873;28;20489;-82
2023/07/30 07:32:42;;;;;;;33.60;30.90;;;;;;;;;;5074432;28;20451;-81
2023/07/30 07:35:09;;;;;;;34.83;32.20;;;;;;;;;;5075207;28;20849;-81
2023/07/30 07:37:36;;;;;;;34.33;31.03;;;;;;;;;;5074980;28;20457;-81
2023/07/30 07:40:05;;;;;;;32.03;29.87;;;;;;;;;;5073432;28;20818;-82
2023/07/30 07:42:32;;;;;;;34.10;31.50;;;;;;;;;;5075149;28;20526;-80
2023/07/30 07:44:59;;;;;;;35.00;32.00;;;;;;;;;;5074673;28;20909;-81
2023/07/30 07:47:26;;;;;;;32.57;29.97;;;;;;;;;;5081483;28;20586;-80
2023/07/30 07:49:53;;;;;;;32.70;30.10;;;;;;;;;;5089958;28;20502;-80
2023/07/30 07:52:20;;;;;;;34.07;31.10;;;;;;;;;;5076277;28;20456;-79
2023/07/30 07:54:47;;;;;;;35.57;32.80;;;;;;;;;;5077212;28;20443;-80
2023/07/30 07:57:16;;;;;;;33.27;30.43;;;;;;;;;;5077041;28;20443;-81
2023/07/30 07:59:44;;;;;;;31.70;29.17;;;;;;;;;;5076739;28;20456;-79
2023/07/30 08:02:11;;;;;;;35.03;31.93;;;;;;;;;;5076978;28;20451;-80
2023/07/30 08:04:38;;;;;;;32.93;29.63;;;;;;;;;;5077199;28;20416;-81
2023/07/30 08:07:06;;;;;;;33.03;30.20;;;;;;;;;;5077155;28;20424;-81
2023/07/30 08:09:33;;;;;;;32.40;30.00;;;;;;;;;;5075967;28;20460;-81
2023/07/30 08:12:00;;;;;;;33.40;30.30;;;;;;;;;;5076395;28;20485;-80
2023/07/30 08:14:29;;;;;;;35.07;31.50;;;;;;;;;;5077217;28;20492;-80
2023/07/30 08:16:56;;;;;;;35.13;31.93;;;;;;;;;;5077428;28;20485;-81
2023/07/30 08:19:23;;;;;;;34.73;32.00;;;;;;;;;;5076679;28;20787;-79
2023/07/30 08:21:50;;;;;;;35.33;32.47;;;;;;;;;;5075260;28;20993;-81
2023/07/30 08:24:17;;;;;;;36.97;33.37;;;;;;;;;;5076876;28;20453;-81
2023/07/30 08:26:44;;;;;;;36.93;33.37;;;;;;;;;;5075348;28;20450;-81
2023/07/30 08:29:13;;;;;;;32.90;30.00;;;;;;;;;;5076754;28;20450;-81
2023/07/30 08:31:42;;;;;;;35.40;32.00;;;;;;;;;;5076160;28;20493;-81
2023/07/30 08:34:09;;;;;;;34.27;31.47;;;;;;;;;;5075282;28;20485;-80
2023/07/30 08:36:36;;;;;;;34.87;31.90;;;;;;;;;;5075732;28;20433;-81
2023/07/30 08:39:04;;;;;;;35.50;32.20;;;;;;;;;;5076504;28;20548;-82
2023/07/30 08:41:31;;;;;;;36.57;33.20;;;;;;;;;;5088411;28;20471;-82
2023/07/30 08:43:58;;;;;;;36.07;32.97;;;;;;;;;;5095364;28;20480;-81
2023/07/30 08:46:25;;;;;;;39.40;35.87;;;;;;;;;;5095486;28;20449;-80
2023/07/30 08:48:53;;;;;;;40.03;36.67;;;;;;;;;;5085799;28;20450;-81
2023/07/30 08:51:21;;;;;;;43.10;38.97;;;;;;;;;;5074980;28;20521;-81
2023/07/30 08:53:48;;;;;;;41.70;37.40;;;;;;;;;;5074811;28;21244;-79
2023/07/30 08:56:15;;;;;;;37.07;33.53;;;;;;;;;;5074809;28;20436;-80
2023/07/30 08:58:42;;;;;;;42.20;37.77;;;;;;;;;;5072846;28;20441;-81
2023/07/30 09:01:11;;;;;;;40.77;36.53;;;;;;;;;;5073977;28;20444;-80
2023/07/30 09:03:39;;;;;;;40.27;36.80;;;;;;;;;;5074812;28;20546;-80
2023/07/30 09:06:07;;;;;;;40.77;36.67;;;;;;;;;;5074801;28;20987;-81
2023/07/30 09:08:35;;;;;;;40.53;36.83;;;;;;;;;;5074277;28;20461;-80
2023/07/30 09:11:07;;;;;;;41.23;37.13;;;;;;;;;;5074445;28;20497;-80
2023/07/30 09:13:38;;;;;;;38.80;35.60;;;;;;;;;;5075375;28;20504;-80
2023/07/30 09:16:10;;;;;;;39.10;35.70;;;;;;;;;;5075825;28;20438;-80
2023/07/30 09:18:40;;;;;;;43.10;38.40;;;;;;;;;;5075239;28;20541;-80
2023/07/30 09:21:08;;;;;;;40.47;36.73;;;;;;;;;;5076231;28;20548;-83
2023/07/30 09:23:41;;;;;;;41.13;36.90;;;;;;;;;;5077866;28;20455;-82
2023/07/30 09:26:08;;;;;;;39.90;35.90;;;;;;;;;;5078881;28;20520;-83
2023/07/30 09:28:35;;;;;;;40.30;36.77;;;;;;;;;;5077894;28;20962;-81
2023/07/30 09:31:02;;;;;;;40.43;36.50;;;;;;;;;;5078204;28;20468;-81
2023/07/30 09:33:29;;;;;;;42.30;38.60;;;;;;;;;;5079177;28;20432;-81
2023/07/30 09:35:56;;;;;;;41.63;37.93;;;;;;;;;;5079650;28;20453;-81
2023/07/30 09:38:25;;;;;;;40.80;37.10;;;;;;;;;;5079176;28;20503;-80
2023/07/30 09:40:52;;;;;;;42.37;37.77;;;;;;;;;;5080516;28;20466;-81
2023/07/30 09:43:19;;;;;;;40.80;37.00;;;;;;;;;;5080824;28;20469;-80
2023/07/30 09:45:47;;;;;;;40.77;37.20;;;;;;;;;;5080602;28;20435;-81
2023/07/30 09:48:16;;;;;;;40.87;36.97;;;;;;;;;;5080511;28;20433;-81
2023/07/30 09:50:43;;;;;;;39.47;36.23;;;;;;;;;;5079908;28;20900;-80
2023/07/30 09:53:10;;;;;;;37.27;33.97;;;;;;;;;;5080775;28;20420;-81
2023/07/30 09:55:39;;;;;;;33.23;30.33;;;;;;;;;;5080285;28;20420;-80
2023/07/30 09:58:07;;;;;;;32.97;29.97;;;;;;;;;;5080672;28;20428;-81
2023/07/30 10:00:34;;;;;;;29.27;26.90;;;;;;;;;;5079350;28;20428;-81
2023/07/30 10:03:03;;;;;;;28.80;26.50;;;;;;;;;;5079794;28;20479;-81
2023/07/30 10:05:34;;;;;;;33.67;30.57;;;;;;;;;;5080613;28;20416;-80
2023/07/30 10:08:02;;;;;;;32.77;29.97;;;;;;;;;;5080293;28;20436;-81
2023/07/30 10:10:30;;;;;;;32.53;29.70;;;;;;;;;;5079283;28;20924;-80
2023/07/30 10:13:00;;;;;;;35.93;29.50;;;;;;;;;;5080356;28;20428;-81
2023/07/30 10:15:28;;;;;;;32.00;29.33;;;;;;;;;;5080741;28;20412;-81
2023/07/30 10:17:57;;;;;;;34.83;31.43;;;;;;;;;;5080711;28;20434;-81
2023/07/30 10:20:25;;;;;;;30.90;28.23;;;;;;;;;;5079540;28;20445;-80
2023/07/30 10:22:53;;;;;;;30.37;27.77;;;;;;;;;;5080384;28;20454;-81
2023/07/30 10:25:22;;;;;;;31.40;28.50;;;;;;;;;;5080241;28;20428;-82
2023/07/30 10:27:51;;;;;;;31.40;29.10;;;;;;;;;;5080828;28;20449;-80
2023/07/30 10:30:20;;;;;;;30.23;27.70;;;;;;;;;;5079000;28;20481;-81
2023/07/30 10:32:59;;;;;;;31.83;29.23;;;;;;;;;;5080170;28;20449;-81
2023/07/30 10:35:36;;;;;;;27.70;25.33;;;;;;;;;;5080225;28;20456;-80
2023/07/30 10:38:13;;;;;;;31.63;29.10;;;;;;;;;;5079913;28;20408;-81
2023/07/30 10:40:40;;;;;;;32.80;30.07;;;;;;;;;;5079689;28;20436;-81
2023/07/30 10:43:15;;;;;;;32.87;29.70;;;;;;;;;;5080413;28;20478;-80
2023/07/30 10:45:51;;;;;;;31.53;28.90;;;;;;;;;;5079948;28;20511;-82
2023/07/30 10:48:18;;;;;;;30.40;28.00;;;;;;;;;;5079595;28;20463;-80
2023/07/30 10:50:48;;;;;;;31.93;29.47;;;;;;;;;;5079762;28;20467;-81
2023/07/30 10:53:16;;;;;;;31.90;29.30;;;;;;;;;;5079320;28;20436;-80
2023/07/30 10:55:43;;;;;;;27.93;25.73;;;;;;;;;;5079226;28;20968;-81
2023/07/30 10:58:10;;;;;;;31.03;28.40;;;;;;;;;;5079955;28;20446;-81
2023/07/30 11:00:37;;;;;;;30.50;27.87;;;;;;;;;;5078812;28;20420;-81
2023/07/30 11:03:05;;;;;;;29.50;27.37;;;;;;;;;;5079190;28;20435;-80
2023/07/30 11:05:32;;;;;;;29.90;27.40;;;;;;;;;;5079242;28;20456;-80
2023/07/30 11:07:59;;;;;;;31.53;29.10;;;;;;;;;;5079334;28;20450;-81
2023/07/30 11:10:26;;;;;;;29.03;26.87;;;;;;;;;;5078247;28;20432;-80
2023/07/30 11:12:54;;;;;;;30.00;27.30;;;;;;;;;;5079474;28;20491;-81
2023/07/30 11:15:21;;;;;;;29.13;26.83;;;;;;;;;;5079171;28;20477;-81
2023/07/30 11:17:49;;;;;;;30.57;27.97;;;;;;;;;;5079743;28;20431;-80
2023/07/30 11:20:27;;;;;;;31.00;28.33;;;;;;;;;;5080713;28;20445;-81
2023/07/30 11:22:54;;;;;;;27.73;25.10;;;;;;;;;;5083714;28;20446;-80
2023/07/30 11:25:21;;;;;;;29.17;27.17;;;;;;;;;;5083804;28;20445;-80
2023/07/30 11:27:49;;;;;;;28.73;26.60;;;;;;;;;;5083884;28;20445;-81
2023/07/30 11:30:16;;;;;;;30.07;28.00;;;;;;;;;;5082709;28;20427;-81
2023/07/30 11:32:44;;;;;;;28.77;26.77;;;;;;;;;;5083612;28;20465;-80
2023/07/30 11:35:12;;;;;;;28.37;26.33;;;;;;;;;;5082984;28;20921;-80
2023/07/30 11:37:42;;;;;;;26.93;25.13;;;;;;;;;;5083226;28;20447;-80
2023/07/30 11:40:10;;;;;;;29.97;27.43;;;;;;;;;;5081793;28;20480;-80
2023/07/30 11:42:37;;;;;;;28.00;25.80;;;;;;;;;;5082639;28;20825;-81
2023/07/30 11:45:20;;;;;;;24.47;22.33;;;;;;;;;;5082259;28;20449;-80
2023/07/30 11:47:47;;;;;;;27.47;25.57;;;;;;;;;;5080250;28;20540;-80
2023/07/30 11:50:14;;;;;;;27.33;25.23;;;;;;;;;;5080819;28;20460;-80
2023/07/30 11:52:54;;;;;;;27.33;24.87;;;;;;;;;;5081632;28;20911;-80
2023/07/30 11:55:21;;;;;;;24.90;22.90;;;;;;;;;;5081171;28;20433;-81
2023/07/30 11:57:48;;;;;;;25.30;23.50;;;;;;;;;;5081182;28;20454;-81
2023/07/30 12:00:15;;;;;;;25.50;23.70;;;;;;;;;;5081228;28;20741;-81
2023/07/30 12:02:43;;;;;;;25.63;23.67;;;;;;;;;;5081623;28;20973;-81
2023/07/30 12:05:11;;;;;;;26.50;24.70;;;;;;;;;;5082153;28;20437;-82
2023/07/30 12:07:41;;;;;;;24.83;23.13;;;;;;;;;;5082324;28;20428;-81
2023/07/30 12:10:10;;;;;;;24.60;22.90;;;;;;;;;;5081142;28;20450;-81
2023/07/30 12:12:37;;;;;;;25.90;24.30;;;;;;;;;;5081554;28;20497;-81
2023/07/30 12:15:12;;;;;;;26.13;24.37;;;;;;;;;;5081597;28;20472;-81
2023/07/30 12:17:39;;;;;;;26.30;24.40;;;;;;;;;;5081965;28;20445;-81
2023/07/30 12:20:06;;;;;;;25.27;23.37;;;;;;;;;;5080578;28;20482;-80
2023/07/30 12:22:35;;;;;;;24.33;22.63;;;;;;;;;;5081554;28;20490;-81
2023/07/30 12:25:02;;;;;;;24.57;22.70;;;;;;;;;;5081749;28;20913;-81
2023/07/30 12:27:30;;;;;;;26.63;24.20;;;;;;;;;;5082014;28;20453;-80
2023/07/30 12:29:57;;;;;;;24.40;23.00;;;;;;;;;;5081533;28;20482;-80
2023/07/30 12:32:27;;;;;;;24.63;23.03;;;;;;;;;;5080014;28;20515;-81
2023/07/30 12:34:55;;;;;;;23.23;21.63;;;;;;;;;;5080821;28;20461;-80
2023/07/30 12:37:22;;;;;;;25.40;23.77;;;;;;;;;;5082137;28;20490;-81
2023/07/30 12:39:49;;;;;;;24.00;22.13;;;;;;;;;;5081452;28;20436;-81
2023/07/30 12:42:16;;;;;;;24.13;22.67;;;;;;;;;;5082745;28;20481;-81
2023/07/30 12:44:44;;;;;;;24.50;22.80;;;;;;;;;;5081516;28;20995;-80
2023/07/30 12:47:11;;;;;;;23.00;21.50;;;;;;;;;;5081246;28;20515;-80
2023/07/30 12:49:38;;;;;;;24.00;22.40;;;;;;;;;;5080371;28;20461;-82
2023/07/30 12:52:06;;;;;;;24.60;22.90;;;;;;;;;;5080734;28;20551;-80
2023/07/30 12:54:33;;;;;;;25.00;23.33;;;;;;;;;;5080169;28;20469;-81
2023/07/30 12:57:00;;;;;;;24.17;22.47;;;;;;;;;;5080797;28;20457;-81
2023/07/30 12:59:27;;;;;;;23.10;21.50;;;;;;;;;;5080461;28;20457;-81
2023/07/30 13:01:55;;;;;;;22.30;21.00;;;;;;;;;;5080467;28;20465;-81
2023/07/30 13:04:22;;;;;;;23.17;21.67;;;;;;;;;;5080288;28;20437;-81
2023/07/30 13:06:49;;;;;;;23.30;21.80;;;;;;;;;;5080371;28;20457;-81
2023/07/30 13:09:16;;;;;;;22.90;21.50;;;;;;;;;;5079979;28;20442;-81
2023/07/30 13:11:43;;;;;;;22.27;21.03;;;;;;;;;;5081190;28;20481;-82
2023/07/30 13:14:10;;;;;;;23.23;21.60;;;;;;;;;;5080679;28;20928;-80
2023/07/30 13:16:37;;;;;;;24.17;22.53;;;;;;;;;;5080223;28;20461;-82
2023/07/30 13:19:06;;;;;;;25.13;22.87;;;;;;;;;;5080067;28;20460;-82
2023/07/30 13:21:33;;;;;;;23.40;21.80;;;;;;;;;;5083050;28;20465;-81
2023/07/30 13:24:00;;;;;;;22.87;21.47;;;;;;;;;;5081153;28;20450;-81
2023/07/30 13:26:27;;;;;;;22.83;21.30;;;;;;;;;;5080313;28;20806;-80
2023/07/30 13:28:54;;;;;;;24.17;22.70;;;;;;;;;;5079692;28;20454;-81
2023/07/30 13:31:21;;;;;;;23.13;21.83;;;;;;;;;;5080110;28;20551;-81
2023/07/30 13:33:48;;;;;;;22.87;21.17;;;;;;;;;;5080222;28;20442;-80
2023/07/30 13:36:17;;;;;;;24.20;22.27;;;;;;;;;;5079843;28;20453;-80
2023/07/30 13:38:44;;;;;;;23.90;22.17;;;;;;;;;;5080214;28;20799;-80
2023/07/30 13:41:11;;;;;;;25.20;23.30;;;;;;;;;;5079511;28;20480;-79
2023/07/30 13:43:38;;;;;;;25.93;24.10;;;;;;;;;;5079812;28;20446;-80
2023/07/30 13:46:05;;;;;;;24.53;22.57;;;;;;;;;;5078811;28;20933;-80
2023/07/30 13:48:32;;;;;;;23.37;21.70;;;;;;;;;;5078172;28;20458;-81
2023/07/30 13:50:59;;;;;;;23.70;22.20;;;;;;;;;;5078020;28;20527;-80
2023/07/30 13:53:28;;;;;;;22.60;21.13;;;;;;;;;;5077841;28;20543;-82
2023/07/30 13:55:55;;;;;;;22.07;20.57;;;;;;;;;;5078802;28;20450;-80
2023/07/30 13:58:22;;;;;;;20.83;19.63;;;;;;;;;;5079553;28;21088;-81
2023/07/30 14:00:49;;;;;;;22.63;21.00;;;;;;;;;;5079553;28;21057;-82
2023/07/30 14:03:16;;;;;;;21.17;19.87;;;;;;;;;;5080300;28;20431;-81
2023/07/30 14:05:43;;;;;;;20.57;19.27;;;;;;;;;;5079121;28;20435;-81
2023/07/30 14:08:10;;;;;;;21.00;19.60;;;;;;;;;;5079660;28;20479;-81
2023/07/30 14:10:38;;;;;;;20.57;19.37;;;;;;;;;;5078973;28;20449;-81
2023/07/30 14:13:05;;;;;;;21.20;19.60;;;;;;;;;;5079686;28;20501;-80
2023/07/30 14:15:33;;;;;;;20.37;19.20;;;;;;;;;;5079474;28;20438;-81
2023/07/30 14:18:00;;;;;;;22.17;20.40;;;;;;;;;;5079869;28;20467;-81